PGWT

Details ICAO PGWT (TIQ)
Name TINIAN INTL
Region USA (Guam, Northern Mariana Islands)
Timezone Pacific/Saipan (UTC+10.0)
Plans Departing 4
Arriving 0
Stats Elevation 271 ft / 83 m (AMSL)
Location 14.999200° 145.619346°
Runways 1
Magnetic Variation 0.517° E
Sunrise 2017-12-14 20:36:33 UTC / 2017-12-15 06:36:33 Local
Sunset 2017-12-15 07:51:13 UTC / 2017-12-15 17:51:13 Local
Advertisement - Login to hide

Runways

ID Width Length Bearing (true) Bearing (mag) Surface Threshold Offset Overrun Length
08 150 ft / 46 m 8,590 ft / 2,618 m 78.98° 78.46° Asphalt 0 ft / 0 m 0 ft / 0 m
26 150 ft / 46 m 8,590 ft / 2,618 m 258.98° 258.46° Asphalt 0 ft / 0 m 0 ft / 0 m

Map

Weather


0- 5 10 15 20 25 30 35+ Temperature / ° C

Clouds and Precipitation
Forecast for 2017-12-15 12:00 UTC. Updated 2 hours ago

Ground ~20,000 ft ~40,000 ft Winds

METAR

Not found

TAF

TAF PGWT 150529Z 1506/1606 08011KT P6SM VCSH SCT015 SCT150

Frequencies

Unicom 123.60 MHz CTAF
Warning: Do not use this data for real-world aviation or navigation. No guarantee of current accuracy is given.